Time;durP1;ratioP1;P1;durP2;ratioP2;P2;SDS_P1;SDS_P2;PMS_P1;PMS_P2;Temp;Humidity;BMP_temperature;BMP_pressure;BME280_temperature;BME280_humidity;BME280_pressure;Samples;Min_cycle;Max_cycle;Signal;HPM_P1;HPM_P2
2021/12/03 00:00:56;;;;;;;5.57;3.30;;;0.30;99.90;;;;;;4761993;29;20068;-76
2021/12/03 00:03:27;;;;;;;6.20;3.77;;;0.30;99.90;;;;;;4766428;29;20062;-76
2021/12/03 00:05:56;;;;;;;8.07;4.43;;;0.30;99.90;;;;;;4766978;29;20047;-82
2021/12/03 00:08:24;;;;;;;6.63;3.73;;;0.30;99.90;;;;;;4789035;29;20063;-76
2021/12/03 00:11:02;;;;;;;8.37;4.17;;;0.30;99.90;;;;;;4774115;29;20051;-82
2021/12/03 00:13:31;;;;;;;7.80;3.50;;;0.30;99.90;;;;;;4773153;29;20063;-82
2021/12/03 00:15:59;;;;;;;7.30;3.77;;;0.30;99.90;;;;;;4745648;29;20055;-76
2021/12/03 00:18:26;;;;;;;8.70;4.60;;;0.30;99.90;;;;;;4760510;29;20135;-77
2021/12/03 00:20:53;;;;;;;7.13;4.33;;;0.30;99.90;;;;;;4756984;29;20503;-84
2021/12/03 00:23:21;;;;;;;6.57;4.77;;;0.30;99.90;;;;;;4792228;29;20051;-83
2021/12/03 00:25:47;;;;;;;7.70;4.57;;;0.30;99.90;;;;;;4766923;29;20132;-84
2021/12/03 00:28:14;;;;;;;9.07;4.63;;;0.30;99.90;;;;;;4790016;29;20068;-84
2021/12/03 00:30:41;;;;;;;8.13;4.77;;;0.30;99.90;;;;;;4785642;29;20034;-78
2021/12/03 00:33:07;;;;;;;13.27;5.40;;;0.30;99.90;;;;;;4788347;29;20047;-78
2021/12/03 00:35:34;;;;;;;9.77;5.57;;;0.30;99.90;;;;;;4801937;29;20046;-78
2021/12/03 00:38:01;;;;;;;7.90;4.80;;;0.30;99.90;;;;;;4772251;29;20047;-78
2021/12/03 00:40:32;;;;;;;10.50;5.80;;;0.30;99.90;;;;;;4788724;29;20395;-78
2021/12/03 00:42:59;;;;;;;7.97;4.90;;;0.20;99.90;;;;;;4783072;29;20523;-78
2021/12/03 00:45:26;;;;;;;11.93;5.37;;;0.30;99.90;;;;;;4781337;29;20039;-84
2021/12/03 00:47:52;;;;;;;8.00;4.37;;;0.20;99.90;;;;;;4787337;29;20111;-84
2021/12/03 00:50:22;;;;;;;7.37;4.90;;;0.20;99.90;;;;;;4790713;29;20047;-84
2021/12/03 00:52:50;;;;;;;9.43;5.33;;;0.20;99.90;;;;;;4806254;29;20046;-83
2021/12/03 00:55:17;;;;;;;7.40;4.97;;;0.20;99.90;;;;;;4781899;29;20491;-78
2021/12/03 00:57:44;;;;;;;7.33;4.30;;;0.20;99.90;;;;;;4783878;29;20364;-83
2021/12/03 01:00:19;;;;;;;7.73;4.50;;;0.20;99.90;;;;;;4787010;29;20494;-77
2021/12/03 01:02:45;;;;;;;9.73;5.93;;;0.20;99.90;;;;;;4774652;29;20525;-77
2021/12/03 01:05:12;;;;;;;9.53;6.20;;;0.20;99.90;;;;;;4806649;29;20128;-78
2021/12/03 01:07:38;;;;;;;8.57;6.33;;;0.20;99.90;;;;;;4797247;29;20039;-78
2021/12/03 01:10:07;;;;;;;11.57;6.37;;;0.20;99.90;;;;;;4773745;29;20503;-83
2021/12/03 01:12:34;;;;;;;9.93;6.60;;;0.20;99.90;;;;;;4790005;29;20055;-83
2021/12/03 01:15:02;;;;;;;8.20;5.77;;;0.20;99.90;;;;;;4803931;29;20031;-83
2021/12/03 01:17:28;;;;;;;11.17;5.77;;;0.20;99.90;;;;;;4801527;29;20043;-78
2021/12/03 01:19:56;;;;;;;12.50;7.70;;;0.20;99.90;;;;;;4766987;29;20078;-77
2021/12/03 01:22:22;;;;;;;9.93;7.40;;;0.20;99.90;;;;;;4804058;29;20046;-84
2021/12/03 01:24:49;;;;;;;14.53;8.93;;;0.20;99.90;;;;;;4810922;29;20043;-83
2021/12/03 01:27:15;;;;;;;13.17;7.30;;;0.20;99.90;;;;;;4791812;29;20046;-83
2021/12/03 01:29:42;;;;;;;12.90;6.87;;;0.20;99.90;;;;;;4775247;29;20043;-83
2021/12/03 01:32:08;;;;;;;16.30;11.40;;;0.30;99.90;;;;;;4805622;29;20403;-84
2021/12/03 01:34:36;;;;;;;7.93;6.27;;;0.30;99.90;;;;;;4792762;29;20054;-83
2021/12/03 01:37:03;;;;;;;8.43;6.47;;;0.30;99.90;;;;;;4792823;29;20050;-77
2021/12/03 01:39:29;;;;;;;11.57;6.50;;;0.30;99.90;;;;;;4788479;29;20057;-83
2021/12/03 01:41:56;;;;;;;7.60;5.40;;;0.30;99.90;;;;;;4785957;29;20054;-83
2021/12/03 01:44:22;;;;;;;10.87;6.47;;;0.40;99.90;;;;;;4788466;29;20034;-83
2021/12/03 01:46:49;;;;;;;8.63;6.47;;;0.40;99.90;;;;;;4807601;29;20460;-83
2021/12/03 01:49:16;;;;;;;8.90;5.60;;;0.40;99.90;;;;;;4805555;29;20491;-83
2021/12/03 01:51:43;;;;;;;11.17;7.00;;;0.40;99.90;;;;;;4791286;29;20047;-84
2021/12/03 01:54:09;;;;;;;10.43;6.83;;;0.40;99.90;;;;;;4772426;29;20034;-84
2021/12/03 01:56:38;;;;;;;12.50;7.73;;;0.40;99.90;;;;;;4795622;29;20042;-78
2021/12/03 01:59:07;;;;;;;11.27;7.20;;;0.40;99.90;;;;;;4787031;29;20046;-77
2021/12/03 02:01:34;;;;;;;12.40;7.30;;;0.50;99.90;;;;;;4789355;29;20530;-78
2021/12/03 02:04:03;;;;;;;10.17;6.97;;;0.50;99.90;;;;;;4774916;29;20046;-78
2021/12/03 02:06:31;;;;;;;9.50;6.33;;;0.60;99.90;;;;;;4806870;29;20057;-77
2021/12/03 02:08:58;;;;;;;10.47;6.90;;;0.60;99.90;;;;;;4792685;29;20047;-77
2021/12/03 02:11:26;;;;;;;10.53;6.47;;;0.70;99.90;;;;;;4787221;29;20065;-78
2021/12/03 02:13:52;;;;;;;13.53;7.23;;;0.70;99.90;;;;;;4771870;29;20039;-77
2021/12/03 02:16:19;;;;;;;9.43;6.80;;;0.70;99.90;;;;;;4807162;29;20042;-84
2021/12/03 02:18:46;;;;;;;14.87;9.17;;;0.70;99.90;;;;;;4786420;29;20061;-83
2021/12/03 02:21:14;;;;;;;14.93;8.97;;;0.70;99.90;;;;;;4779656;29;20073;-84
2021/12/03 02:23:42;;;;;;;17.10;9.00;;;0.70;99.90;;;;;;4808766;29;20050;-84
2021/12/03 02:26:08;;;;;;;13.83;8.20;;;0.80;99.90;;;;;;4772819;29;20050;-84
2021/12/03 02:28:39;;;;;;;14.07;8.93;;;0.80;99.90;;;;;;4808557;29;20038;-83
2021/12/03 02:31:06;;;;;;;14.53;9.43;;;0.80;99.90;;;;;;4790423;29;20050;-84
2021/12/03 02:33:34;;;;;;;10.80;8.57;;;0.90;99.90;;;;;;4785458;29;20051;-83
2021/12/03 02:36:01;;;;;;;15.07;10.50;;;0.90;99.90;;;;;;4789756;29;20411;-84
2021/12/03 02:38:28;;;;;;;18.50;10.40;;;0.80;99.90;;;;;;4770217;29;20038;-84
2021/12/03 02:40:55;;;;;;;18.40;10.27;;;0.90;99.90;;;;;;4786273;29;20511;-84
2021/12/03 02:43:22;;;;;;;21.33;12.03;;;0.90;99.90;;;;;;4786073;29;20034;-84
2021/12/03 02:45:52;;;;;;;17.80;12.20;;;0.90;99.90;;;;;;4784662;29;20039;-84
2021/12/03 02:48:20;;;;;;;16.73;11.20;;;0.90;99.90;;;;;;4772422;29;20066;-84
2021/12/03 02:50:47;;;;;;;16.90;11.17;;;0.90;99.90;;;;;;4789425;29;20038;-83
2021/12/03 02:53:13;;;;;;;18.20;10.57;;;0.90;99.90;;;;;;4787397;29;20051;-84
2021/12/03 02:55:40;;;;;;;17.63;11.23;;;1.00;99.90;;;;;;4762550;29;20049;-83
2021/12/03 02:58:07;;;;;;;16.10;11.03;;;0.90;99.90;;;;;;4801713;29;20395;-83
2021/12/03 03:00:35;;;;;;;19.30;11.30;;;1.00;99.90;;;;;;4806012;29;20054;-83
2021/12/03 03:03:02;;;;;;;13.57;10.10;;;1.00;99.90;;;;;;4808655;29;20055;-83
2021/12/03 03:05:28;;;;;;;16.87;10.60;;;1.00;99.90;;;;;;4786965;29;20043;-83
2021/12/03 03:07:55;;;;;;;18.13;11.23;;;1.00;99.90;;;;;;4805898;29;20046;-83
2021/12/03 03:10:28;;;;;;;20.00;11.53;;;1.00;99.90;;;;;;4809569;29;20505;-83
2021/12/03 03:12:57;;;;;;;16.33;11.23;;;1.00;99.90;;;;;;4797296;29;20444;-83
2021/12/03 03:15:24;;;;;;;16.43;10.87;;;1.00;99.90;;;;;;4796690;29;20066;-83
2021/12/03 03:17:51;;;;;;;15.07;10.77;;;1.00;99.90;;;;;;4789678;29;20059;-83
2021/12/03 03:20:19;;;;;;;17.20;11.50;;;1.00;99.90;;;;;;4786007;29;20049;-84
2021/12/03 03:22:47;;;;;;;17.37;11.03;;;1.00;99.90;;;;;;4789612;29;20039;-84
2021/12/03 03:25:18;;;;;;;14.33;10.50;;;1.10;99.90;;;;;;4774315;29;20039;-84
2021/12/03 03:27:45;;;;;;;17.17;10.60;;;1.10;99.90;;;;;;4806801;29;20595;-84
2021/12/03 03:30:15;;;;;;;14.57;10.57;;;1.10;99.90;;;;;;4760733;29;20493;-83
2021/12/03 03:32:42;;;;;;;18.33;11.37;;;1.10;99.90;;;;;;4789496;29;20054;-83
2021/12/03 03:35:09;;;;;;;21.43;12.33;;;1.10;99.90;;;;;;4807081;29;20046;-84
2021/12/03 03:37:35;;;;;;;26.60;14.00;;;1.10;99.90;;;;;;4786742;29;20082;-83
2021/12/03 03:40:03;;;;;;;20.50;13.43;;;1.10;99.90;;;;;;4804956;29;20038;-83
2021/12/03 03:42:29;;;;;;;16.83;11.83;;;1.10;99.90;;;;;;4808786;29;20046;-84
2021/12/03 03:44:56;;;;;;;24.90;15.23;;;1.10;99.90;;;;;;4786597;29;20042;-83
2021/12/03 03:47:23;;;;;;;22.27;15.20;;;1.10;99.90;;;;;;4808947;29;20046;-83
2021/12/03 03:49:49;;;;;;;26.87;17.63;;;1.10;99.90;;;;;;4788933;29;20062;-83
2021/12/03 03:52:17;;;;;;;29.23;17.97;;;1.20;99.90;;;;;;4781408;29;20077;-82
2021/12/03 03:54:43;;;;;;;26.90;17.33;;;1.20;99.90;;;;;;4759541;29;20046;-81
2021/12/03 03:57:10;;;;;;;26.87;17.13;;;1.30;99.90;;;;;;4790672;29;20042;-83
2021/12/03 03:59:36;;;;;;;34.93;22.70;;;1.30;99.90;;;;;;4804781;29;20035;-83
2021/12/03 04:02:03;;;;;;;32.07;19.67;;;1.30;99.90;;;;;;4782882;29;20957;-83
2021/12/03 04:04:29;;;;;;;31.10;19.00;;;1.30;99.90;;;;;;4803554;29;20400;-83
2021/12/03 04:06:56;;;;;;;33.60;20.37;;;1.30;99.90;;;;;;4786332;29;20035;-84
2021/12/03 04:09:23;;;;;;;35.57;22.63;;;1.30;99.90;;;;;;4753535;29;20039;-84
2021/12/03 04:11:50;;;;;;;30.70;20.17;;;1.40;99.90;;;;;;4801162;29;20065;-84
2021/12/03 04:14:16;;;;;;;36.07;23.50;;;1.40;99.90;;;;;;4785187;29;20043;-84
2021/12/03 04:16:42;;;;;;;39.47;24.90;;;1.50;99.90;;;;;;4779430;29;20039;-84
2021/12/03 04:19:09;;;;;;;41.53;24.43;;;1.50;99.90;;;;;;4783563;29;20039;-84
2021/12/03 04:21:36;;;;;;;50.47;28.37;;;1.50;99.90;;;;;;4783632;29;20051;-84
2021/12/03 04:24:03;;;;;;;47.73;28.77;;;1.50;99.90;;;;;;4791376;29;20038;-84
2021/12/03 04:26:30;;;;;;;45.40;29.23;;;1.50;99.90;;;;;;4789049;29;20046;-85
2021/12/03 04:28:56;;;;;;;46.27;29.00;;;1.60;99.90;;;;;;4802075;29;20043;-85
2021/12/03 04:31:23;;;;;;;38.73;23.87;;;1.60;99.90;;;;;;4789804;29;20061;-86
2021/12/03 04:33:49;;;;;;;62.90;33.20;;;1.60;99.90;;;;;;4789265;29;20454;-86
2021/12/03 04:36:16;;;;;;;49.93;29.10;;;1.70;99.90;;;;;;4762596;29;20533;-86
2021/12/03 04:38:42;;;;;;;44.43;27.37;;;1.70;99.90;;;;;;4785532;29;20055;-86
2021/12/03 04:41:09;;;;;;;53.90;33.10;;;1.70;99.90;;;;;;4770898;29;20495;-85
2021/12/03 04:43:35;;;;;;;75.43;38.27;;;1.70;99.90;;;;;;4757435;29;20468;-85
2021/12/03 04:46:02;;;;;;;58.40;32.47;;;1.80;99.90;;;;;;4789635;29;20046;-86
2021/12/03 04:48:28;;;;;;;65.70;34.67;;;1.80;99.90;;;;;;4779257;29;20055;-86
2021/12/03 04:50:55;;;;;;;52.23;30.33;;;1.80;99.90;;;;;;4777588;29;20053;-85
2021/12/03 04:53:21;;;;;;;62.10;35.60;;;1.80;99.90;;;;;;4786837;29;20806;-85
2021/12/03 04:55:49;;;;;;;59.17;34.13;;;1.90;99.90;;;;;;4792734;29;20047;-85
2021/12/03 04:58:17;;;;;;;64.60;33.77;;;1.90;99.90;;;;;;4785851;29;20050;-86
2021/12/03 05:00:48;;;;;;;58.47;33.20;;;1.90;99.90;;;;;;4791137;29;20048;-85
2021/12/03 05:03:16;;;;;;;90.87;40.23;;;1.90;99.90;;;;;;4764561;29;20046;-85
2021/12/03 05:05:48;;;;;;;63.00;33.20;;;1.90;99.90;;;;;;4784174;29;20043;-86
2021/12/03 05:08:15;;;;;;;69.32;35.47;;;1.90;99.90;;;;;;4776977;29;20399;-85
2021/12/03 05:10:42;;;;;;;65.20;34.80;;;2.00;99.90;;;;;;4795692;29;20047;-85
2021/12/03 05:13:18;;;;;;;81.10;36.33;;;2.00;99.90;;;;;;4805228;29;20065;-85
2021/12/03 05:15:46;;;;;;;87.87;37.77;;;2.00;99.90;;;;;;4798341;29;20051;-85
2021/12/03 05:18:16;;;;;;;76.63;36.03;;;2.00;99.90;;;;;;4811724;29;20046;-85
2021/12/03 05:20:43;;;;;;;93.63;40.07;;;2.00;99.90;;;;;;4785232;29;20047;-85
2021/12/03 05:23:11;;;;;;;87.00;39.67;;;2.00;99.90;;;;;;4808681;29;20495;-84
2021/12/03 05:25:37;;;;;;;85.53;38.43;;;2.00;99.90;;;;;;4798921;29;20407;-84
2021/12/03 05:28:05;;;;;;;106.03;42.27;;;2.00;99.90;;;;;;4788764;29;20066;-84
2021/12/03 05:30:32;;;;;;;90.83;38.07;;;2.00;99.90;;;;;;4782059;29;20053;-84
2021/12/03 05:32:59;;;;;;;108.83;40.97;;;2.10;99.90;;;;;;4805609;29;20053;-82
2021/12/03 05:35:26;;;;;;;90.57;36.87;;;2.10;99.90;;;;;;4796526;29;20063;-83
2021/12/03 05:37:53;;;;;;;89.57;35.10;;;2.10;99.90;;;;;;4790623;29;20593;-83
2021/12/03 05:40:20;;;;;;;83.27;33.93;;;2.10;99.90;;;;;;4791121;29;20042;-85
2021/12/03 05:42:48;;;;;;;97.47;38.03;;;2.10;99.90;;;;;;4773006;29;20047;-83
2021/12/03 05:45:18;;;;;;;98.87;38.80;;;2.20;99.90;;;;;;4772836;29;20511;-84
2021/12/03 05:47:45;;;;;;;92.43;37.13;;;2.20;99.90;;;;;;4758284;29;20039;-83
2021/12/03 05:50:15;;;;;;;207.50;61.20;;;2.20;99.90;;;;;;4801170;29;20046;-83
2021/12/03 05:52:43;;;;;;;113.63;46.80;;;2.20;99.90;;;;;;4784154;29;20511;-84
2021/12/03 05:55:11;;;;;;;100.87;40.63;;;2.20;99.90;;;;;;4774491;29;20055;-84
2021/12/03 05:57:39;;;;;;;95.67;40.03;;;2.20;99.90;;;;;;4799488;29;20046;-83
2021/12/03 06:00:10;;;;;;;100.17;39.13;;;2.30;99.90;;;;;;4788501;29;20446;-84
2021/12/03 06:02:36;;;;;;;120.63;46.23;;;2.30;99.90;;;;;;4785359;29;20054;-84
2021/12/03 06:05:03;;;;;;;123.03;48.23;;;2.30;99.90;;;;;;4800886;29;20628;-84
2021/12/03 06:07:29;;;;;;;119.47;47.80;;;2.30;99.90;;;;;;4781920;29;20050;-84
2021/12/03 06:09:56;;;;;;;139.67;49.83;;;2.30;99.90;;;;;;4776517;29;20043;-83
2021/12/03 06:12:24;;;;;;;104.97;44.97;;;2.40;99.90;;;;;;4793526;29;20499;-84
2021/12/03 06:14:51;;;;;;;118.27;47.23;;;2.40;99.90;;;;;;4789283;29;20043;-83
2021/12/03 06:17:17;;;;;;;114.80;46.93;;;2.40;99.90;;;;;;4789892;29;20050;-83
2021/12/03 06:19:44;;;;;;;118.30;48.03;;;2.40;99.90;;;;;;4808371;29;20046;-83
2021/12/03 06:22:11;;;;;;;108.87;49.40;;;2.40;99.90;;;;;;4775068;29;20069;-82
2021/12/03 06:24:39;;;;;;;117.67;46.87;;;2.40;99.90;;;;;;4805062;29;20043;-81
2021/12/03 06:27:06;;;;;;;110.00;43.00;;;2.40;99.90;;;;;;4807838;29;20372;-85
2021/12/03 06:29:33;;;;;;;148.93;56.23;;;2.50;99.90;;;;;;4788004;29;20038;-78
2021/12/03 06:32:00;;;;;;;115.77;48.13;;;2.50;99.90;;;;;;4775388;29;20053;-76
2021/12/03 06:34:27;;;;;;;107.00;42.97;;;2.50;99.90;;;;;;4773045;29;20035;-82
2021/12/03 06:36:53;;;;;;;118.00;44.33;;;2.50;99.90;;;;;;4810749;29;20045;-82
2021/12/03 06:39:19;;;;;;;136.07;51.97;;;2.50;99.90;;;;;;4796450;29;20046;-81
2021/12/03 06:41:46;;;;;;;129.23;51.13;;;2.60;99.90;;;;;;4793886;29;20039;-81
2021/12/03 06:44:13;;;;;;;142.23;54.10;;;2.50;99.90;;;;;;4810911;29;20031;-73
2021/12/03 06:46:39;;;;;;;122.10;46.87;;;2.60;99.90;;;;;;4775432;29;20703;-81
2021/12/03 06:49:06;;;;;;;139.50;53.10;;;2.50;99.90;;;;;;4765143;29;20054;-81
2021/12/03 06:51:39;;;;;;;125.70;49.37;;;2.60;99.90;;;;;;4794092;29;20038;-74
2021/12/03 06:54:06;;;;;;;138.47;52.90;;;2.60;99.90;;;;;;4801662;29;20057;-81
2021/12/03 06:56:48;;;;;;;121.60;45.93;;;2.60;99.90;;;;;;4773012;29;20054;-81
2021/12/03 06:59:15;;;;;;;126.43;48.53;;;2.60;99.90;;;;;;4790024;29;20054;-78
2021/12/03 07:01:42;;;;;;;122.67;50.93;;;2.60;99.90;;;;;;4792422;29;20435;-79
2021/12/03 07:04:10;;;;;;;112.03;47.23;;;2.60;99.90;;;;;;4759658;29;20049;-82
2021/12/03 07:06:36;;;;;;;122.70;48.50;;;2.60;99.90;;;;;;4788470;29;20507;-76
2021/12/03 07:09:04;;;;;;;111.33;45.60;;;2.60;99.90;;;;;;4801638;29;20042;-75
2021/12/03 07:11:30;;;;;;;108.47;45.00;;;2.60;99.90;;;;;;4782283;29;20050;-75
2021/12/03 07:13:57;;;;;;;102.77;41.17;;;2.70;99.90;;;;;;4801056;29;20396;-76
2021/12/03 07:16:24;;;;;;;85.07;37.23;;;2.70;99.90;;;;;;4755504;29;20059;-75
2021/12/03 07:18:51;;;;;;;97.77;38.73;;;2.60;99.90;;;;;;4790660;29;20038;-76
2021/12/03 07:21:17;;;;;;;85.43;38.70;;;2.70;99.90;;;;;;4773096;29;20487;-76
2021/12/03 07:23:44;;;;;;;80.23;34.27;;;2.60;99.90;;;;;;4783258;29;20045;-75
2021/12/03 07:26:10;;;;;;;74.77;33.30;;;2.60;99.90;;;;;;4795494;29;20035;-76
2021/12/03 07:28:37;;;;;;;79.57;34.47;;;2.60;99.90;;;;;;4756759;29;20043;-76
2021/12/03 07:31:03;;;;;;;72.73;32.73;;;2.60;99.90;;;;;;4810224;29;20047;-75
2021/12/03 07:33:31;;;;;;;67.00;32.10;;;2.60;99.90;;;;;;4786492;29;20049;-76
2021/12/03 07:35:58;;;;;;;75.20;33.63;;;2.60;99.90;;;;;;4781041;29;20039;-76
2021/12/03 07:38:25;;;;;;;63.40;28.77;;;2.60;99.90;;;;;;4803209;29;20035;-76
2021/12/03 07:40:52;;;;;;;80.17;34.10;;;2.60;99.90;;;;;;4792247;29;20055;-76
2021/12/03 07:43:19;;;;;;;67.00;29.00;;;2.60;99.90;;;;;;4775278;29;20039;-76
2021/12/03 07:45:47;;;;;;;63.87;26.37;;;2.60;99.90;;;;;;4800374;29;20038;-76
2021/12/03 07:48:14;;;;;;;58.83;28.47;;;2.60;99.90;;;;;;4800897;29;20069;-76
2021/12/03 07:50:41;;;;;;;61.80;26.70;;;2.60;99.90;;;;;;4780994;29;20399;-76
2021/12/03 07:53:14;;;;;;;55.60;26.03;;;2.60;99.90;;;;;;4800330;29;20027;-76
2021/12/03 07:55:40;;;;;;;57.45;26.33;;;2.60;99.90;;;;;;4787678;29;20043;-76
2021/12/03 07:58:07;;;;;;;53.53;24.70;;;2.60;99.90;;;;;;4783161;29;20391;-75
2021/12/03 08:00:34;;;;;;;53.63;24.20;;;2.70;99.90;;;;;;4802904;29;20047;-75
2021/12/03 08:03:00;;;;;;;46.03;22.17;;;2.60;99.90;;;;;;4798837;29;20058;-75
2021/12/03 08:05:27;;;;;;;42.47;20.93;;;2.70;99.90;;;;;;4779700;29;20058;-75
2021/12/03 08:07:54;;;;;;;46.50;21.00;;;2.70;99.90;;;;;;4786579;29;20050;-75
2021/12/03 08:10:20;;;;;;;45.13;19.93;;;2.70;99.90;;;;;;4804063;29;20395;-75
2021/12/03 08:12:47;;;;;;;44.50;18.93;;;2.70;99.90;;;;;;4771248;29;20049;-75
2021/12/03 08:15:15;;;;;;;43.67;17.10;;;2.70;99.90;;;;;;4768747;29;20039;-75
2021/12/03 08:17:42;;;;;;;37.27;16.63;;;2.70;99.90;;;;;;4802997;29;20046;-76
2021/12/03 08:20:11;;;;;;;39.50;15.70;;;2.70;99.90;;;;;;4787070;29;20043;-78
2021/12/03 08:22:37;;;;;;;31.40;14.47;;;2.70;99.90;;;;;;4787743;29;20771;-75
2021/12/03 08:25:04;;;;;;;45.07;20.17;;;2.70;99.90;;;;;;4757474;29;20122;-77
2021/12/03 08:27:30;;;;;;;34.27;16.00;;;2.70;99.90;;;;;;4771548;29;20053;-77
2021/12/03 08:29:57;;;;;;;34.33;12.37;;;2.70;99.90;;;;;;4800492;29;20498;-75
2021/12/03 08:32:23;;;;;;;30.67;13.43;;;2.70;99.90;;;;;;4797816;29;20040;-75
2021/12/03 08:34:50;;;;;;;32.70;12.80;;;2.80;99.90;;;;;;4768192;29;20046;-76
2021/12/03 08:37:16;;;;;;;27.93;11.47;;;2.80;99.90;;;;;;4781790;29;20050;-78
2021/12/03 08:39:43;;;;;;;27.23;10.17;;;2.80;99.90;;;;;;4775165;29;20427;-73
2021/12/03 08:42:11;;;;;;;24.83;9.70;;;2.80;99.90;;;;;;4753529;29;20071;-75
2021/12/03 08:44:38;;;;;;;26.57;9.87;;;2.80;99.90;;;;;;4786050;29;20039;-75
2021/12/03 08:47:06;;;;;;;28.00;9.33;;;2.80;99.90;;;;;;4785955;29;20043;-75
2021/12/03 08:49:38;;;;;;;25.27;9.07;;;2.90;99.90;;;;;;4802059;29;20058;-77
2021/12/03 08:54:50;;;;;;;18.87;8.70;;;2.90;99.90;;;;;;4800408;29;20077;-75
2021/12/03 08:57:31;;;;;;;23.20;8.80;;;2.90;99.90;;;;;;4771694;29;20042;-75
2021/12/03 09:00:03;;;;;;;26.03;8.30;;;3.00;99.90;;;;;;4798930;29;20121;-75
2021/12/03 09:02:30;;;;;;;21.50;8.40;;;3.00;99.90;;;;;;4801640;29;20047;-83
2021/12/03 09:04:56;;;;;;;25.77;9.03;;;3.00;99.90;;;;;;4787123;29;20043;-85
2021/12/03 09:07:23;;;;;;;26.13;8.77;;;3.00;99.90;;;;;;4774806;29;20034;-83
2021/12/03 09:09:49;;;;;;;19.73;8.40;;;3.00;99.90;;;;;;4801369;29;20039;-81
2021/12/03 09:12:16;;;;;;;23.00;8.33;;;3.10;99.90;;;;;;4800146;29;20050;-82
2021/12/03 09:14:50;;;;;;;17.77;7.13;;;3.10;99.90;;;;;;4785128;29;20038;-83
2021/12/03 09:22:19;;;;;;;17.90;7.43;;;3.30;99.90;;;;;;4802884;29;20046;-81
2021/12/03 09:24:45;;;;;;;24.17;9.80;;;3.30;99.90;;;;;;4754001;29;20042;-83
2021/12/03 09:27:12;;;;;;;18.57;7.27;;;3.30;99.90;;;;;;4788300;29;20045;-82
2021/12/03 09:29:39;;;;;;;22.10;7.87;;;3.40;99.90;;;;;;4789856;29;20053;-82
2021/12/03 09:32:06;;;;;;;22.47;8.37;;;3.40;99.90;;;;;;4779522;29;20043;-83
2021/12/03 09:34:34;;;;;;;20.70;7.97;;;3.40;99.90;;;;;;4803598;29;20046;-83
2021/12/03 09:37:00;;;;;;;21.37;7.47;;;3.50;99.90;;;;;;4790760;29;20415;-83
2021/12/03 09:39:27;;;;;;;16.08;7.82;;;3.50;99.90;;;;;;4763312;29;20043;-83
2021/12/03 09:41:55;;;;;;;17.93;6.53;;;3.50;99.90;;;;;;4809724;29;20062;-83
2021/12/03 09:44:22;;;;;;;21.98;8.30;;;3.50;99.90;;;;;;4780874;29;20034;-83
2021/12/03 09:46:49;;;;;;;18.83;8.13;;;3.50;99.90;;;;;;4798427;29;20030;-84
2021/12/03 09:51:53;;;;;;;15.40;5.90;;;3.60;99.90;;;;;;4780533;29;20054;-82
2021/12/03 09:56:51;;;;;;;17.30;6.07;;;3.70;99.90;;;;;;4794842;29;20046;-83
2021/12/03 10:01:57;;;;;;;20.93;6.43;;;3.60;99.90;;;;;;4815766;29;20065;-81
2021/12/03 10:10:29;;;;;;;24.92;5.78;;;3.70;99.90;;;;;;4810189;29;20047;-82
2021/12/03 10:15:25;;;;;;;21.55;4.88;;;3.70;99.90;;;;;;4805436;29;20058;-81
2021/12/03 10:34:15;;;;;;;13.73;4.00;;;3.80;99.90;;;;;;4804829;29;20039;-82
2021/12/03 10:40:01;;;;;;;18.83;3.87;;;3.90;99.90;;;;;;4760562;29;20058;-83
2021/12/03 10:42:46;;;;;;;14.93;3.70;;;3.90;99.90;;;;;;4775481;29;20085;-83
2021/12/03 11:07:02;;;;;;;27.15;6.80;;;3.90;99.90;;;;;;4803582;29;20042;-81
2021/12/03 14:36:57;;;;;;;10.07;3.53;;;4.80;99.90;;;;;;4788015;29;20069;-76
2021/12/03 14:42:28;;;;;;;7.90;3.60;;;4.70;99.90;;;;;;4804173;29;20375;-77
2021/12/03 14:45:16;;;;;;;11.27;3.40;;;4.70;99.90;;;;;;4805186;29;20038;-77
2021/12/03 14:55:41;;;;;;;8.82;4.95;;;4.60;99.90;;;;;;4806418;29;20038;-77
2021/12/03 14:58:17;;;;;;;11.57;6.00;;;4.60;99.90;;;;;;4804592;29;20047;-78
2021/12/03 15:00:50;;;;;;;11.38;4.95;;;4.60;99.90;;;;;;4807899;29;20050;-77
2021/12/03 15:08:34;;;;;;;8.93;6.10;;;4.40;99.90;;;;;;4783903;29;20403;-79
2021/12/03 15:24:37;;;;;;;9.88;4.60;;;4.40;99.90;;;;;;4727488;30;20057;-76
2021/12/03 15:32:51;;;;;;;9.18;5.00;;;4.30;99.90;;;;;;4784403;29;20407;-76
2021/12/03 15:57:00;;;;;;;8.50;5.25;;;4.30;99.90;;;;;;4802863;29;20050;-75
2021/12/03 16:05:13;;;;;;;8.87;6.63;;;4.30;99.90;;;;;;4807566;29;20497;-74
2021/12/03 16:10:15;;;;;;;10.10;7.03;;;4.30;99.90;;;;;;4788734;29;20050;-74
2021/12/03 16:18:06;;;;;;;7.28;5.18;;;4.30;99.90;;;;;;4800714;29;20054;-74
2021/12/03 16:45:39;;;;;;;10.98;8.00;;;4.30;99.90;;;;;;4793991;29;20051;-76
2021/12/03 16:51:25;;;;;;;;;;;4.40;99.90;;;;;;4803864;29;20061;-75
2021/12/03 16:53:29;;;;;;;18.33;12.77;;;4.40;99.90;;;;;;4795705;29;19944;-74
2021/12/03 16:58:29;;;;;;;19.70;11.82;;;4.40;99.90;;;;;;4803828;29;20094;-80
2021/12/03 17:01:07;;;;;;;13.30;11.90;;;4.40;99.90;;;;;;4790491;29;20424;-80
2021/12/03 17:27:43;;;;;;;18.48;12.02;;;4.50;99.90;;;;;;4797747;29;20031;-81
2021/12/03 17:44:20;;;;;;;13.00;11.50;;;4.50;99.90;;;;;;4786732;29;20050;-80
2021/12/03 17:48:40;;;;;;;10.70;8.98;;;4.50;99.90;;;;;;4784610;29;20058;-81
2021/12/03 17:51:57;;;;;;;10.40;9.40;;;4.60;99.90;;;;;;4805136;29;20046;-81
2021/12/03 17:56:25;;;;;;;12.32;11.02;;;4.60;99.90;;;;;;4782966;29;20051;-81
2021/12/03 17:59:03;;;;;;;10.52;9.43;;;4.60;99.90;;;;;;4802264;29;20058;-80
2021/12/03 18:01:35;;;;;;;17.83;13.95;;;4.60;99.90;;;;;;4802410;29;20399;-80
2021/12/03 18:04:09;;;;;;;13.35;12.05;;;4.60;99.90;;;;;;4797806;29;20043;-80
2021/12/03 18:53:29;;;;;;;12.98;10.77;;;4.80;99.90;;;;;;4787896;29;20459;-81
2021/12/03 18:55:57;;;;;;;11.32;10.30;;;4.80;99.90;;;;;;4779439;29;20046;-82
2021/12/03 18:58:26;;;;;;;10.48;9.35;;;4.80;99.90;;;;;;4800919;29;20039;-82
2021/12/03 19:00:53;;;;;;;14.65;11.73;;;4.80;99.90;;;;;;4786653;29;20027;-82
2021/12/03 19:08:40;;;;;;;16.60;14.90;;;4.80;99.90;;;;;;4798383;29;20038;-81
2021/12/03 19:11:18;;;;;;;14.00;12.70;;;4.80;99.90;;;;;;4763472;29;20046;-82
2021/12/03 19:13:44;;;;;;;19.13;17.05;;;4.80;99.90;;;;;;4785554;29;20379;-81
2021/12/03 19:16:13;;;;;;;20.02;17.90;;;4.80;99.90;;;;;;4788576;29;20049;-82
2021/12/03 19:18:44;;;;;;;19.50;17.48;;;4.80;99.90;;;;;;4786375;29;20057;-82
2021/12/03 19:21:16;;;;;;;12.93;11.63;;;4.80;99.90;;;;;;4801460;29;20527;-82
2021/12/03 19:23:43;;;;;;;22.23;19.92;;;4.80;99.90;;;;;;4776244;29;20051;-83
2021/12/03 19:26:09;;;;;;;17.00;15.05;;;4.80;99.90;;;;;;4807365;29;20053;-83
2021/12/03 19:28:36;;;;;;;20.92;18.67;;;4.80;99.90;;;;;;4804410;29;20058;-83
2021/12/03 19:31:05;;;;;;;16.73;15.03;;;4.80;99.90;;;;;;4789311;29;20053;-82
2021/12/03 19:33:33;;;;;;;17.30;15.48;;;4.80;99.90;;;;;;4788604;29;20049;-82
2021/12/03 19:36:00;;;;;;;15.27;13.77;;;4.80;99.90;;;;;;4772526;29;20505;-82
2021/12/03 19:38:27;;;;;;;17.58;15.88;;;4.80;99.90;;;;;;4787799;29;20051;-82
2021/12/03 19:41:11;;;;;;;15.90;14.27;;;4.80;99.90;;;;;;4803043;29;20510;-82
2021/12/03 19:43:44;;;;;;;14.98;13.55;;;4.80;99.90;;;;;;4801518;29;20047;-81
2021/12/03 19:46:14;;;;;;;15.50;13.95;;;4.80;99.90;;;;;;4802236;29;20515;-82
2021/12/03 19:48:48;;;;;;;15.95;14.38;;;4.80;99.90;;;;;;4799475;29;20049;-81
2021/12/03 19:51:15;;;;;;;14.90;13.40;;;4.80;99.90;;;;;;4787196;29;20059;-81
2021/12/03 19:56:26;;;;;;;20.27;18.10;;;4.80;99.90;;;;;;4791581;29;20050;-81
2021/12/03 19:58:53;;;;;;;15.43;13.82;;;4.80;99.90;;;;;;4802162;29;20043;-81
2021/12/03 20:01:20;;;;;;;17.42;14.68;;;4.70;99.90;;;;;;4788415;29;20505;-81
2021/12/03 20:03:48;;;;;;;16.10;14.27;;;4.70;99.90;;;;;;4800683;29;20468;-81
2021/12/03 20:06:15;;;;;;;14.90;13.50;;;4.70;99.90;;;;;;4804342;29;20043;-81
2021/12/03 20:08:41;;;;;;;16.13;14.40;;;4.70;99.90;;;;;;4801528;29;20484;-81
2021/12/03 20:11:09;;;;;;;13.77;12.38;;;4.70;99.90;;;;;;4803964;29;20404;-81
2021/12/03 20:13:41;;;;;;;16.02;14.40;;;4.70;99.90;;;;;;4787154;29;20035;-81
2021/12/03 20:16:18;;;;;;;19.40;17.45;;;4.70;99.90;;;;;;4785540;29;20050;-82
2021/12/03 20:18:50;;;;;;;18.83;16.88;;;4.70;99.90;;;;;;4792489;29;20038;-81
2021/12/03 20:21:18;;;;;;;13.43;12.13;;;4.70;99.90;;;;;;4802885;29;20051;-74
2021/12/03 20:24:13;;;;;;;17.52;15.82;;;4.70;99.90;;;;;;4802988;29;20480;-74
2021/12/03 20:29:45;;;;;;;19.67;17.52;;;4.70;99.90;;;;;;4803588;29;20527;-74
2021/12/03 20:37:14;;;;;;;13.77;12.35;;;4.70;99.90;;;;;;4774041;29;20062;-81
2021/12/03 20:39:42;;;;;;;12.65;11.35;;;4.70;99.90;;;;;;4806241;29;20043;-74
2021/12/03 20:45:00;;;;;;;16.08;13.32;;;4.70;99.90;;;;;;4801324;29;20039;-74
2021/12/03 20:47:58;;;;;;;14.73;13.25;;;4.70;99.90;;;;;;4785645;29;20039;-74